Time;durP1;ratioP1;P1;durP2;ratioP2;P2;SDS_P1;SDS_P2;PMS_P1;PMS_P2;Temp;Humidity;BMP_temperature;BMP_pressure;BME280_temperature;BME280_humidity;BME280_pressure;Samples;Min_cycle;Max_cycle;Signal;HPM_P1;HPM_P2
2024/03/07 00:01:03;;;;;;;9.18;6.25;;;5.50;99.90;;;4.73;100.00;101400.19;4135884;28;20098;-70
2024/03/07 00:03:04;;;;;;;7.75;6.03;;;5.50;99.90;;;4.68;100.00;101401.44;4136224;28;20023;-70
2024/03/07 00:05:05;;;;;;;8.02;5.57;;;5.50;99.90;;;4.66;100.00;101396.31;4136808;28;20038;-69
2024/03/07 00:07:07;;;;;;;10.00;5.97;;;5.40;99.90;;;4.63;100.00;101396.50;4119495;28;20038;-70
2024/03/07 00:09:09;;;;;;;8.48;6.05;;;5.40;99.90;;;4.59;100.00;101392.44;4135734;28;20026;-70
2024/03/07 00:11:10;;;;;;;7.43;5.32;;;5.40;99.90;;;4.56;100.00;101383.97;4136868;28;20501;-70
2024/03/07 00:13:12;;;;;;;10.90;6.53;;;5.30;99.90;;;4.53;100.00;101381.56;4136373;28;20037;-70
2024/03/07 00:15:15;;;;;;;11.38;6.07;;;5.30;99.90;;;4.51;100.00;101378.22;4133708;28;20062;-70
2024/03/07 00:17:15;;;;;;;8.90;6.47;;;5.30;99.90;;;4.48;100.00;101377.47;4135828;28;20486;-71
2024/03/07 00:19:16;;;;;;;11.98;7.95;;;5.30;99.90;;;4.46;100.00;101381.13;4136073;28;20167;-71
2024/03/07 00:21:17;;;;;;;11.98;7.65;;;5.20;99.90;;;4.48;100.00;101384.44;4136218;28;20037;-71
2024/03/07 00:23:18;;;;;;;12.40;8.35;;;5.20;99.90;;;4.49;100.00;101380.91;4136093;28;20033;-71
2024/03/07 00:25:19;;;;;;;12.40;8.48;;;5.20;99.90;;;4.44;100.00;101373.41;4135791;28;20562;-71
2024/03/07 00:27:20;;;;;;;14.20;7.50;;;5.20;99.90;;;4.42;100.00;101369.22;4136373;28;20026;-71
2024/03/07 00:29:21;;;;;;;15.00;8.60;;;5.20;99.90;;;4.37;100.00;101361.66;4148974;28;20393;-71
2024/03/07 00:31:22;;;;;;;10.15;6.93;;;5.20;99.90;;;4.37;100.00;101371.28;4149324;28;20042;-71
2024/03/07 00:33:23;;;;;;;12.10;8.07;;;5.10;99.90;;;4.35;100.00;101363.56;4118983;28;20022;-71
2024/03/07 00:35:24;;;;;;;10.85;8.32;;;5.10;99.90;;;4.32;100.00;101360.31;4136408;28;20112;-71
2024/03/07 00:37:25;;;;;;;12.70;8.43;;;5.10;99.90;;;4.27;100.00;101357.97;4134941;28;20030;-71
2024/03/07 00:39:26;;;;;;;13.70;8.30;;;5.00;99.90;;;4.26;100.00;101353.72;4152346;28;20124;-71
2024/03/07 00:41:27;;;;;;;9.98;7.43;;;5.00;99.90;;;4.23;100.00;101353.06;4152824;28;20045;-71
2024/03/07 00:43:28;;;;;;;15.85;7.80;;;5.00;99.90;;;4.28;100.00;101357.06;4142810;28;20030;-71
2024/03/07 00:45:28;;;;;;;10.50;7.25;;;5.00;99.90;;;4.22;100.00;101349.63;4136475;28;20030;-71
2024/03/07 00:47:29;;;;;;;10.85;8.23;;;5.00;99.90;;;4.25;100.00;101349.41;4136248;28;20014;-71
2024/03/07 00:49:31;;;;;;;9.77;7.22;;;5.00;99.90;;;4.16;100.00;101350.03;4135192;28;20068;-71
2024/03/07 00:51:32;;;;;;;9.95;7.55;;;4.90;99.90;;;4.13;100.00;101349.38;4136341;28;20038;-71
2024/03/07 00:53:33;;;;;;;11.45;7.97;;;4.90;99.90;;;4.12;100.00;101348.53;4136125;28;20478;-71
2024/03/07 00:55:33;;;;;;;11.80;8.50;;;4.90;99.90;;;4.12;100.00;101356.38;4136295;28;20033;-71
2024/03/07 00:57:53;;;;;;;13.27;8.48;;;4.90;99.90;;;4.11;100.00;101349.50;4136004;28;20417;-70
2024/03/07 00:59:53;;;;;;;11.63;8.13;;;4.90;99.90;;;4.08;100.00;101351.47;4136244;28;20106;-70
2024/03/07 01:01:54;;;;;;;13.65;8.40;;;4.90;99.90;;;4.07;100.00;101349.78;4135958;28;20038;-70
2024/03/07 01:03:55;;;;;;;11.35;7.90;;;4.80;99.90;;;4.03;100.00;101346.56;4135967;28;20038;-70
2024/03/07 01:05:56;;;;;;;10.15;7.82;;;4.80;99.90;;;3.96;100.00;101342.66;4136175;28;20401;-69
2024/03/07 01:07:57;;;;;;;13.23;7.82;;;4.70;99.90;;;3.93;100.00;101345.47;4136094;28;20022;-69
2024/03/07 01:10:00;;;;;;;10.23;6.65;;;4.70;99.90;;;3.90;100.00;101356.09;4118569;28;20037;-70
2024/03/07 01:12:04;;;;;;;11.77;6.05;;;4.70;99.90;;;3.85;100.00;101338.09;4136193;28;20018;-70
2024/03/07 01:14:05;;;;;;;10.75;7.65;;;4.70;99.90;;;3.85;100.00;101345.13;4136234;28;20030;-70
2024/03/07 01:16:07;;;;;;;13.88;7.68;;;4.70;99.90;;;3.85;100.00;101342.50;4139399;28;20404;-70
2024/03/07 01:18:07;;;;;;;12.98;6.78;;;4.60;99.90;;;3.81;100.00;101346.25;4138121;28;20034;-70
2024/03/07 01:20:09;;;;;;;12.30;8.50;;;4.60;99.90;;;3.80;100.00;101341.94;4141419;28;20101;-70
2024/03/07 01:22:10;;;;;;;11.38;7.57;;;4.60;99.90;;;3.75;100.00;101337.03;4154146;28;20030;-70
2024/03/07 01:24:10;;;;;;;10.32;7.53;;;4.60;99.90;;;3.73;100.00;101333.66;4140210;28;20018;-70
2024/03/07 01:26:12;;;;;;;14.77;8.82;;;4.50;99.90;;;3.77;100.00;101329.09;4139196;28;20037;-70
2024/03/07 01:28:14;;;;;;;11.85;8.48;;;4.50;99.90;;;3.72;100.00;101333.78;4138723;28;20030;-70
2024/03/07 01:30:15;;;;;;;12.55;8.73;;;4.50;99.90;;;3.72;100.00;101336.41;4139186;28;20568;-70
2024/03/07 01:32:16;;;;;;;11.90;7.85;;;4.50;99.90;;;3.69;100.00;101333.97;4139210;28;20014;-70
2024/03/07 01:34:16;;;;;;;14.23;8.80;;;4.40;99.90;;;3.66;100.00;101331.56;4138926;28;20034;-70
2024/03/07 01:36:19;;;;;;;10.73;8.05;;;4.40;99.90;;;3.62;100.00;101328.31;4139236;28;20018;-70
2024/03/07 01:38:19;;;;;;;16.50;8.93;;;4.40;99.90;;;3.58;100.00;101323.41;4144806;28;20033;-70
2024/03/07 01:40:20;;;;;;;12.13;8.18;;;4.40;99.90;;;3.58;100.00;101324.25;4155299;28;20026;-70
2024/03/07 01:42:21;;;;;;;14.77;8.35;;;4.40;99.90;;;3.59;100.00;101320.69;4155100;28;20037;-70
2024/03/07 01:44:22;;;;;;;11.32;7.63;;;4.30;99.90;;;3.56;100.00;101320.88;4139213;28;20399;-70
2024/03/07 01:46:24;;;;;;;16.42;8.23;;;4.30;99.90;;;3.60;100.00;101326.72;4139128;28;20030;-69
2024/03/07 01:48:29;;;;;;;15.32;8.25;;;4.40;99.90;;;3.56;100.00;101318.25;4138918;28;20109;-70
2024/03/07 01:50:30;;;;;;;15.93;7.07;;;4.40;99.90;;;3.51;100.00;101322.09;4137510;28;20125;-70
2024/03/07 01:52:31;;;;;;;13.50;8.30;;;4.30;99.90;;;3.49;100.00;101319.59;4121577;28;20039;-69
2024/03/07 01:54:32;;;;;;;14.18;8.13;;;4.30;99.90;;;3.48;100.00;101317.06;4138827;28;20034;-70
2024/03/07 01:56:33;;;;;;;11.10;7.28;;;4.30;99.90;;;3.50;100.00;101320.41;4138936;28;20109;-70
2024/03/07 01:58:36;;;;;;;13.10;7.70;;;4.30;99.90;;;3.47;100.00;101304.97;4138417;28;20482;-70
2024/03/07 02:00:37;;;;;;;12.13;7.22;;;4.30;99.90;;;3.46;100.00;101309.38;4137623;28;20508;-70
2024/03/07 02:02:38;;;;;;;9.95;7.45;;;4.30;99.90;;;3.46;100.00;101303.31;4137123;28;20022;-70
2024/03/07 02:04:39;;;;;;;13.48;7.65;;;4.30;99.90;;;3.42;100.00;101302.66;4131481;28;20026;-70
2024/03/07 02:06:41;;;;;;;11.52;7.22;;;4.30;99.90;;;3.39;100.00;101296.78;4154851;28;20418;-70
2024/03/07 02:08:42;;;;;;;12.18;7.47;;;4.20;99.90;;;3.40;100.00;101294.09;4137874;28;20031;-70
2024/03/07 02:10:43;;;;;;;12.43;7.38;;;4.20;99.90;;;3.35;100.00;101290.94;4154841;28;20536;-70
2024/03/07 02:12:44;;;;;;;11.70;7.30;;;4.20;99.90;;;3.30;100.00;101286.03;4135058;28;20030;-70
2024/03/07 02:14:45;;;;;;;10.70;6.70;;;4.10;99.90;;;3.27;100.00;101274.94;4138282;28;20030;-69
2024/03/07 02:16:46;;;;;;;12.10;6.70;;;4.10;99.90;;;3.29;100.00;101279.13;4138463;28;20081;-70
2024/03/07 02:18:48;;;;;;;10.13;5.95;;;4.10;99.90;;;3.30;100.00;101283.41;4137492;28;20034;-70
2024/03/07 02:20:49;;;;;;;17.55;7.75;;;4.10;99.90;;;3.27;100.00;101275.78;4120918;28;20046;-70
2024/03/07 02:22:52;;;;;;;17.08;7.65;;;4.10;99.90;;;3.29;100.00;101275.66;4127158;28;20034;-70
2024/03/07 02:24:53;;;;;;;10.00;7.18;;;4.10;99.90;;;3.23;100.00;101258.66;4137957;28;20081;-70
2024/03/07 02:26:54;;;;;;;14.38;7.25;;;4.00;99.90;;;3.18;100.00;101265.09;4137250;28;20449;-69
2024/03/07 02:28:55;;;;;;;12.15;7.63;;;4.00;99.90;;;3.12;100.00;101257.66;4138206;28;20402;-69
2024/03/07 02:30:56;;;;;;;11.93;7.40;;;3.90;99.90;;;3.09;100.00;101255.22;4138340;28;20046;-70
2024/03/07 02:32:57;;;;;;;11.40;7.00;;;3.90;99.90;;;3.06;100.00;101258.88;4138159;28;20521;-70
2024/03/07 02:34:58;;;;;;;12.13;6.82;;;3.90;99.90;;;3.00;100.00;101246.22;4120878;28;20035;-69
2024/03/07 02:36:58;;;;;;;11.60;7.00;;;3.80;99.90;;;2.98;100.00;101248.09;4138335;28;20018;-70
2024/03/07 02:39:00;;;;;;;12.55;6.30;;;3.80;99.90;;;2.97;100.00;101238.59;4150015;28;20037;-69
2024/03/07 02:41:01;;;;;;;11.52;6.45;;;3.80;99.90;;;3.00;100.00;101238.41;4154191;28;20029;-70
2024/03/07 02:43:04;;;;;;;17.65;7.90;;;3.80;99.90;;;3.01;100.00;101240.09;4150072;28;20018;-70
2024/03/07 02:45:06;;;;;;;11.25;6.25;;;3.80;99.90;;;2.93;100.00;101229.28;4138150;28;20081;-70
2024/03/07 02:47:07;;;;;;;9.18;6.28;;;3.80;99.90;;;2.98;100.00;101242.03;4138096;28;20039;-69
2024/03/07 02:49:08;;;;;;;9.55;6.78;;;3.80;99.90;;;2.93;100.00;101237.09;4137861;28;20035;-70
2024/03/07 02:51:09;;;;;;;9.70;6.30;;;3.80;99.90;;;2.90;100.00;101232.09;4137964;28;20064;-70
2024/03/07 02:53:10;;;;;;;9.07;5.82;;;3.80;99.90;;;2.90;100.00;101221.66;4136770;28;20034;-70
2024/03/07 02:55:11;;;;;;;12.27;6.30;;;3.70;99.90;;;2.86;100.00;101241.03;4137810;28;20084;-70
2024/03/07 02:57:11;;;;;;;16.52;5.68;;;3.70;99.90;;;2.85;100.00;101223.72;4137550;28;20497;-70
2024/03/07 02:59:13;;;;;;;10.73;6.55;;;3.70;99.90;;;2.85;100.00;101220.28;4136769;28;20026;-70
2024/03/07 03:01:14;;;;;;;11.10;5.35;;;3.70;99.90;;;2.85;100.00;101223.72;4137883;28;20045;-70
2024/03/07 03:03:15;;;;;;;11.00;6.32;;;3.70;99.90;;;2.80;100.00;101223.19;4137650;28;20036;-69
2024/03/07 03:05:16;;;;;;;8.85;5.20;;;3.60;99.90;;;2.82;100.00;101223.91;4137514;28;20026;-70
2024/03/07 03:07:17;;;;;;;10.70;5.93;;;3.60;99.90;;;2.83;100.00;101232.56;4137843;28;20030;-70
2024/03/07 03:09:18;;;;;;;9.60;5.45;;;3.70;99.90;;;2.82;100.00;101212.66;4137743;28;20027;-69
2024/03/07 03:11:20;;;;;;;10.77;5.07;;;3.70;99.90;;;2.80;100.00;101215.38;4136367;28;20033;-70
2024/03/07 03:13:21;;;;;;;9.93;6.32;;;3.70;99.90;;;2.77;100.00;101211.19;4137246;28;20037;-70
2024/03/07 03:15:22;;;;;;;10.95;5.57;;;3.70;99.90;;;2.73;100.00;101208.84;4136407;28;20026;-70
2024/03/07 03:17:23;;;;;;;9.30;5.30;;;3.60;99.90;;;2.67;100.00;101210.06;4137605;28;20394;-69
2024/03/07 03:19:24;;;;;;;8.60;4.97;;;3.50;99.90;;;2.64;100.00;101212.88;4136970;28;20029;-69
2024/03/07 03:21:26;;;;;;;10.48;5.22;;;3.50;99.90;;;2.61;100.00;101209.59;4137273;28;20026;-69
2024/03/07 03:23:31;;;;;;;9.43;4.82;;;3.40;99.90;;;2.56;100.00;101206.44;4137390;28;20050;-69
2024/03/07 03:25:35;;;;;;;10.80;5.25;;;3.40;99.90;;;2.53;100.00;101202.28;4136300;28;20038;-70
2024/03/07 03:27:36;;;;;;;;;;;3.40;99.90;;;2.44;100.00;101194.19;4137592;28;20034;-69
2024/03/07 03:29:37;;;;;;;8.02;5.32;;;3.30;99.90;;;2.46;100.00;101193.16;4137385;28;19921;-69
2024/03/07 03:31:38;;;;;;;12.00;5.47;;;3.30;99.90;;;2.44;100.00;101197.63;4137108;28;20038;-69
2024/03/07 03:33:39;;;;;;;9.85;4.70;;;3.30;99.90;;;2.41;100.00;101194.38;4137319;28;20022;-70
2024/03/07 03:35:42;;;;;;;6.70;4.70;;;3.30;99.90;;;2.38;100.00;101192.78;4136058;28;20030;-70
2024/03/07 03:37:43;;;;;;;12.13;5.43;;;3.20;99.90;;;2.36;100.00;101196.41;4138137;28;20073;-70
2024/03/07 03:39:44;;;;;;;11.75;4.78;;;3.20;99.90;;;2.35;100.00;101192.97;4153375;28;20028;-70
2024/03/07 03:41:45;;;;;;;10.00;5.18;;;3.20;99.90;;;2.38;100.00;101191.94;4136169;28;20027;-70
2024/03/07 03:43:47;;;;;;;7.57;4.38;;;3.20;99.90;;;2.37;100.00;101185.91;4144105;28;20050;-70
2024/03/07 03:45:48;;;;;;;10.50;5.32;;;3.20;99.90;;;2.35;100.00;101187.75;4137041;28;20517;-69
2024/03/07 03:47:49;;;;;;;14.52;5.30;;;3.20;99.90;;;2.32;100.00;101182.75;4137333;28;20089;-69
2024/03/07 03:49:50;;;;;;;8.70;5.15;;;3.20;99.90;;;2.34;100.00;101177.44;4136032;28;20057;-69
2024/03/07 03:51:51;;;;;;;13.82;4.95;;;3.20;99.90;;;2.31;100.00;101175.84;4137180;28;20050;-69
2024/03/07 03:53:52;;;;;;;11.57;4.78;;;3.20;99.90;;;2.32;100.00;101176.69;4135583;28;20521;-70
2024/03/07 03:55:53;;;;;;;12.40;5.50;;;3.10;99.90;;;2.29;100.00;101172.53;4136566;28;20031;-70
2024/03/07 03:57:54;;;;;;;11.60;5.10;;;3.10;99.90;;;2.30;100.00;101174.16;4136769;28;20478;-70
2024/03/07 03:59:56;;;;;;;13.23;5.85;;;3.10;99.90;;;2.28;100.00;101168.22;4136902;28;20029;-69
2024/03/07 04:01:57;;;;;;;12.50;5.22;;;3.10;99.90;;;2.23;100.00;101158.13;4136635;28;20466;-70
2024/03/07 04:03:57;;;;;;;14.52;5.90;;;3.10;99.90;;;2.24;100.00;101157.16;4119363;28;20034;-69
2024/03/07 04:05:58;;;;;;;12.25;6.13;;;3.10;99.90;;;2.30;100.00;101158.56;4136803;28;20410;-70
2024/03/07 04:07:59;;;;;;;9.20;5.10;;;3.10;99.90;;;2.29;100.00;101150.84;4136873;28;20032;-69
2024/03/07 04:10:02;;;;;;;11.80;5.75;;;3.10;99.90;;;2.30;100.00;101144.72;4136648;28;20034;-70
2024/03/07 04:12:05;;;;;;;11.77;5.18;;;3.10;99.90;;;2.30;100.00;101152.53;4136598;28;20038;-70
2024/03/07 04:14:06;;;;;;;11.50;5.15;;;3.10;99.90;;;2.29;100.00;101138.69;4136650;28;20026;-69
2024/03/07 04:16:07;;;;;;;11.15;5.60;;;3.10;99.90;;;2.30;100.00;101142.13;4136667;28;20077;-70
2024/03/07 04:18:09;;;;;;;8.93;5.03;;;3.10;99.90;;;2.30;100.00;101147.34;4136641;28;20097;-69
2024/03/07 04:20:10;;;;;;;10.80;5.30;;;3.10;99.90;;;2.27;100.00;101139.72;4136742;28;20406;-70
2024/03/07 04:22:12;;;;;;;11.45;5.22;;;3.10;99.90;;;2.25;100.00;101145.00;4136484;28;20022;-69
2024/03/07 04:24:13;;;;;;;11.43;5.13;;;3.10;99.90;;;2.22;100.00;101143.41;4136610;28;20034;-69
2024/03/07 04:26:14;;;;;;;11.77;6.22;;;3.10;99.90;;;2.27;100.00;101139.72;4136399;28;20022;-70
2024/03/07 04:28:14;;;;;;;11.65;5.78;;;3.10;99.90;;;2.19;100.00;101146.22;4136410;28;20474;-70
2024/03/07 04:30:16;;;;;;;9.90;5.80;;;3.10;99.90;;;2.17;100.00;101139.44;4135158;28;20042;-70
2024/03/07 04:32:17;;;;;;;9.85;5.07;;;3.00;99.90;;;2.16;100.00;101143.78;4136354;28;20030;-69
2024/03/07 04:34:18;;;;;;;11.02;5.35;;;3.00;99.90;;;2.13;100.00;101137.94;4136196;28;20026;-70
2024/03/07 04:36:19;;;;;;;12.02;5.00;;;3.00;99.90;;;2.08;100.00;101139.97;4136516;28;20035;-70
2024/03/07 04:38:20;;;;;;;10.52;5.80;;;3.00;99.90;;;2.03;100.00;101135.03;4143055;28;20022;-70
2024/03/07 04:40:21;;;;;;;12.98;5.30;;;2.90;99.90;;;2.03;100.00;101139.44;4152476;28;20029;-70
2024/03/07 04:42:22;;;;;;;12.90;4.82;;;2.90;99.90;;;2.04;100.00;101136.72;4152290;28;20026;-70
2024/03/07 04:44:24;;;;;;;9.32;4.57;;;2.80;99.90;;;2.02;100.00;101127.34;4139130;28;20414;-69
2024/03/07 04:46:25;;;;;;;12.95;5.53;;;2.80;99.90;;;2.00;100.00;101127.41;4136352;28;20222;-70
2024/03/07 04:48:26;;;;;;;12.27;4.68;;;2.80;99.90;;;2.01;100.00;101125.66;4136281;28;20098;-69
2024/03/07 04:50:26;;;;;;;13.73;5.78;;;2.90;99.90;;;2.02;100.00;101128.19;4135215;28;20072;-70
2024/03/07 04:52:27;;;;;;;11.25;4.63;;;2.90;99.90;;;2.06;100.00;101124.44;4136165;28;20494;-70
2024/03/07 04:54:31;;;;;;;10.32;5.10;;;2.90;99.90;;;2.10;100.00;101127.69;4134820;28;20502;-70
2024/03/07 04:56:32;;;;;;;9.73;4.80;;;3.00;99.90;;;2.11;100.00;101121.59;4136201;28;20114;-70
2024/03/07 04:58:33;;;;;;;8.50;4.05;;;2.90;99.90;;;2.10;100.00;101125.94;4134624;28;20066;-70
2024/03/07 05:00:34;;;;;;;10.85;4.97;;;2.90;99.90;;;2.09;100.00;101119.06;4135680;28;20446;-70
2024/03/07 05:02:34;;;;;;;13.23;4.47;;;2.90;99.90;;;2.07;100.00;101126.13;4136120;28;20425;-70
2024/03/07 05:04:35;;;;;;;12.45;4.40;;;3.00;99.90;;;2.12;100.00;101124.06;4136119;28;20492;-70
2024/03/07 05:06:36;;;;;;;17.08;4.30;;;3.00;99.90;;;2.16;100.00;101124.72;4136201;28;20394;-70
2024/03/07 05:08:37;;;;;;;9.98;4.43;;;3.00;99.90;;;2.21;100.00;101118.31;4118586;28;20553;-70
2024/03/07 05:10:38;;;;;;;11.57;4.32;;;3.10;99.90;;;2.21;100.00;101123.50;4136052;28;20038;-70
2024/03/07 05:12:39;;;;;;;11.20;4.43;;;3.10;99.90;;;2.22;100.00;101113.94;4135726;28;20044;-70
2024/03/07 05:14:40;;;;;;;11.23;4.35;;;3.10;99.90;;;2.25;100.00;101118.97;4135946;28;20026;-70
2024/03/07 05:16:43;;;;;;;15.18;4.78;;;3.10;99.90;;;2.19;100.00;101107.16;4136045;28;20026;-70
2024/03/07 05:18:44;;;;;;;13.57;4.35;;;3.10;99.90;;;2.24;100.00;101112.06;4135586;28;20019;-70
2024/03/07 05:20:45;;;;;;;9.20;3.72;;;3.10;99.90;;;2.25;100.00;101105.94;4116404;28;20525;-70
2024/03/07 05:22:51;;;;;;;12.05;3.90;;;3.10;99.90;;;2.20;100.00;101098.44;4136068;28;20015;-70
2024/03/07 05:24:53;;;;;;;13.88;4.05;;;3.10;99.90;;;2.27;100.00;101104.06;4151390;28;20025;-70
2024/03/07 05:26:54;;;;;;;14.60;4.43;;;3.10;99.90;;;2.30;100.00;101103.88;4152265;28;20490;-70
2024/03/07 05:28:55;;;;;;;10.65;3.90;;;3.20;99.90;;;2.34;100.00;101102.78;4134589;28;20038;-70
2024/03/07 05:30:56;;;;;;;13.98;3.88;;;3.20;99.90;;;2.33;100.00;101110.69;4152015;28;20050;-69
2024/03/07 05:32:56;;;;;;;7.07;3.67;;;3.20;99.90;;;2.39;100.00;101105.94;4120965;28;21467;-70
2024/03/07 05:34:57;;;;;;;14.13;5.07;;;3.20;99.90;;;2.36;100.00;101110.50;4135854;28;20466;-70
2024/03/07 05:36:58;;;;;;;13.85;4.13;;;3.20;99.90;;;2.36;100.00;101107.91;4134542;28;20023;-70
2024/03/07 05:38:59;;;;;;;12.65;3.70;;;3.20;99.90;;;2.33;100.00;101105.50;4147929;28;20022;-70
2024/03/07 05:41:01;;;;;;;14.07;4.03;;;3.20;99.90;;;2.27;100.00;101095.47;4152005;28;20030;-70
2024/03/07 05:43:02;;;;;;;10.50;3.95;;;3.20;99.90;;;2.28;100.00;101103.16;4150637;28;20022;-70
2024/03/07 05:45:03;;;;;;;9.75;3.70;;;3.10;99.90;;;2.23;100.00;101093.06;4135810;28;20088;-70
2024/03/07 05:47:05;;;;;;;11.13;3.72;;;3.10;99.90;;;2.19;100.00;101094.16;4135812;28;20489;-70
2024/03/07 05:49:05;;;;;;;10.20;3.72;;;3.10;99.90;;;2.15;100.00;101097.88;4135673;28;20407;-69
2024/03/07 05:51:07;;;;;;;7.97;3.40;;;3.00;99.90;;;2.09;100.00;101087.81;4135945;28;20035;-70
2024/03/07 05:53:07;;;;;;;9.98;3.42;;;3.00;99.90;;;2.11;100.00;101090.34;4135717;28;20049;-70
2024/03/07 05:55:08;;;;;;;8.43;3.63;;;3.00;99.90;;;2.04;100.00;101087.28;4135681;28;20402;-69
2024/03/07 05:57:10;;;;;;;12.38;4.40;;;2.90;99.90;;;2.03;100.00;101090.81;4133987;28;20034;-70
2024/03/07 05:59:11;;;;;;;10.57;3.55;;;2.90;99.90;;;2.03;100.00;101083.00;4135705;28;20030;-70
2024/03/07 06:01:11;;;;;;;11.63;3.95;;;2.90;99.90;;;2.05;100.00;101085.53;4136575;28;20023;-70
2024/03/07 06:03:16;;;;;;;10.52;3.67;;;3.00;99.90;;;2.03;100.00;101083.00;4121399;28;20029;-69
2024/03/07 06:05:18;;;;;;;7.40;3.60;;;2.90;99.90;;;2.00;100.00;101083.19;4138594;28;20057;-69
2024/03/07 06:07:20;;;;;;;12.98;4.55;;;2.90;99.90;;;2.04;100.00;101089.88;4138864;28;20030;-69
2024/03/07 06:09:21;;;;;;;7.00;3.90;;;2.90;99.90;;;2.02;100.00;101083.94;4138758;28;20470;-69
2024/03/07 06:11:22;;;;;;;13.27;3.63;;;2.90;99.90;;;1.99;100.00;101078.94;4138489;28;20030;-69
2024/03/07 06:13:23;;;;;;;7.53;3.83;;;2.90;99.90;;;1.94;100.00;101083.56;4138225;28;20030;-69
2024/03/07 06:15:24;;;;;;;9.73;3.55;;;2.80;99.90;;;1.93;100.00;101075.84;4137336;28;20061;-69
2024/03/07 06:17:25;;;;;;;8.88;3.35;;;2.80;99.90;;;1.94;100.00;101078.34;4138418;28;20026;-69
2024/03/07 06:19:26;;;;;;;9.38;4.40;;;2.80;99.90;;;1.95;100.00;101074.84;4136850;28;20030;-69
2024/03/07 06:21:27;;;;;;;10.23;4.00;;;2.80;99.90;;;1.94;100.00;101077.53;4138447;28;20027;-70
2024/03/07 06:23:29;;;;;;;8.38;3.60;;;2.80;99.90;;;1.98;100.00;101077.25;4138425;28;20089;-69
2024/03/07 06:27:49;;;;;;;11.77;3.83;;;2.80;99.90;;;2.07;100.00;101078.44;4138069;28;20038;-69
2024/03/07 06:29:50;;;;;;;10.80;3.60;;;2.80;99.90;;;2.17;100.00;101076.97;4136987;28;20502;-69
2024/03/07 06:31:53;;;;;;;12.73;3.70;;;3.00;99.90;;;2.17;100.00;101074.38;4120736;28;20055;-69
2024/03/07 06:33:54;;;;;;;8.88;3.50;;;3.00;99.90;;;2.15;100.00;101076.25;4138310;28;20023;-69
2024/03/07 06:35:55;;;;;;;16.45;4.20;;;3.00;99.90;;;2.09;100.00;101066.19;4138062;28;20445;-69
2024/03/07 06:37:56;;;;;;;18.85;4.55;;;3.00;99.90;;;2.13;100.00;101052.91;4142031;28;20022;-69
2024/03/07 06:39:57;;;;;;;11.65;3.90;;;3.00;99.90;;;2.16;100.00;101057.91;4154326;28;20077;-69
2024/03/07 06:41:58;;;;;;;15.88;3.85;;;3.00;99.90;;;2.21;100.00;101060.25;4154250;28;20022;-69
2024/03/07 06:43:59;;;;;;;13.18;4.45;;;3.00;99.90;;;2.21;100.00;101048.03;4139598;28;20025;-69
2024/03/07 06:46:00;;;;;;;11.23;4.22;;;3.10;99.90;;;2.29;100.00;101049.34;4138117;28;20030;-69
2024/03/07 06:48:01;;;;;;;15.55;4.28;;;3.10;99.90;;;2.27;100.00;101057.22;4138062;28;20085;-69
2024/03/07 06:50:02;;;;;;;10.18;3.95;;;3.10;99.90;;;2.30;100.00;101064.84;4137977;28;20080;-69
2024/03/07 06:52:03;;;;;;;10.68;3.80;;;3.10;99.90;;;2.30;100.00;101058.84;4138105;28;20031;-69
2024/03/07 06:54:05;;;;;;;12.45;4.00;;;3.10;99.90;;;2.29;100.00;101058.00;4137833;28;20033;-69
2024/03/07 06:56:06;;;;;;;11.23;4.07;;;3.10;99.90;;;2.31;100.00;101047.47;4137905;28;20023;-69
2024/03/07 06:58:07;;;;;;;9.13;3.90;;;3.10;99.90;;;2.35;100.00;101064.56;4137744;28;20026;-69
2024/03/07 07:00:11;;;;;;;10.13;5.03;;;3.20;99.90;;;2.38;100.00;101051.38;4137862;28;20033;-69
2024/03/07 07:02:12;;;;;;;8.50;3.93;;;3.20;99.90;;;2.42;100.00;101063.28;4136931;28;20449;-69
2024/03/07 07:04:14;;;;;;;9.30;4.07;;;3.20;99.90;;;2.45;100.00;101063.09;4137747;28;20272;-69
2024/03/07 07:06:16;;;;;;;11.88;4.43;;;3.20;99.90;;;2.45;100.00;101053.47;4136643;28;20030;-70
2024/03/07 07:08:17;;;;;;;11.65;4.32;;;3.30;99.90;;;2.48;100.00;101057.69;4136456;28;20050;-69
2024/03/07 07:10:17;;;;;;;16.48;5.10;;;3.30;99.90;;;2.55;100.00;101061.56;4137740;28;20026;-69
2024/03/07 07:12:19;;;;;;;11.27;4.47;;;3.30;99.90;;;2.60;100.00;101051.66;4136463;28;20049;-69
2024/03/07 07:14:20;;;;;;;10.57;4.03;;;3.40;99.90;;;2.58;100.00;101049.19;4136201;28;20038;-70
2024/03/07 07:16:21;;;;;;;8.68;4.15;;;3.40;99.90;;;2.60;100.00;101054.28;4120354;28;20015;-69
2024/03/07 07:18:23;;;;;;;8.70;3.45;;;3.40;99.90;;;2.60;100.00;101051.66;4137618;28;20023;-71
2024/03/07 07:20:24;;;;;;;16.20;5.45;;;3.40;99.90;;;2.60;100.00;101051.66;4137679;28;20027;-71
2024/03/07 07:22:26;;;;;;;10.57;3.60;;;3.40;99.90;;;2.62;100.00;101045.47;4137505;28;20130;-69
2024/03/07 07:24:28;;;;;;;6.60;4.15;;;3.40;99.90;;;2.69;100.00;101051.94;4136309;28;20022;-69
2024/03/07 07:26:30;;;;;;;6.97;3.30;;;3.50;99.90;;;2.68;100.00;101039.84;4137533;28;20022;-69
2024/03/07 07:28:33;;;;;;;6.32;3.28;;;3.50;99.90;;;2.70;100.00;101044.94;4133652;28;20053;-71
2024/03/07 07:30:34;;;;;;;9.68;3.70;;;3.50;99.90;;;2.75;100.00;101038.50;4120027;28;20074;-69
2024/03/07 07:32:35;;;;;;;9.18;4.05;;;3.50;99.90;;;2.77;100.00;101041.03;4137286;28;20030;-69
2024/03/07 07:34:36;;;;;;;10.75;3.60;;;3.60;99.90;;;2.80;100.00;101035.63;4137068;28;20034;-69
2024/03/07 07:36:37;;;;;;;9.13;3.40;;;3.60;99.90;;;2.87;100.00;101041.28;4137301;28;20049;-69
2024/03/07 07:38:38;;;;;;;9.45;3.45;;;3.70;99.90;;;2.95;100.00;101042.44;4146910;28;20041;-69
2024/03/07 07:40:39;;;;;;;14.43;3.55;;;3.70;99.90;;;3.04;100.00;101031.41;4153206;28;20026;-69
2024/03/07 07:42:41;;;;;;;11.63;3.30;;;3.80;99.90;;;3.09;100.00;101018.91;4151731;28;20022;-69
2024/03/07 07:44:44;;;;;;;16.02;4.10;;;3.80;99.90;;;3.13;100.00;101030.81;4139955;28;20054;-69
2024/03/07 07:46:44;;;;;;;7.60;3.33;;;3.90;99.90;;;3.19;100.00;101024.34;4137151;28;20088;-69
2024/03/07 07:48:45;;;;;;;11.30;3.20;;;4.00;99.90;;;3.29;100.00;101034.06;4136949;28;20030;-70
2024/03/07 07:50:48;;;;;;;51.75;38.88;;;4.00;99.90;;;3.38;100.00;101023.94;4136817;28;20030;-69
2024/03/07 07:52:51;;;;;;;15.68;4.47;;;4.10;99.90;;;3.51;100.00;101022.19;4135821;28;20104;-69
2024/03/07 07:54:52;;;;;;;9.57;4.05;;;4.20;99.90;;;3.62;100.00;101023.13;4136634;28;20430;-69
2024/03/07 07:56:52;;;;;;;6.32;3.08;;;4.30;99.90;;;3.74;100.00;101018.81;4136383;28;20026;-69
2024/03/07 07:58:53;;;;;;;6.95;3.50;;;4.40;99.90;;;3.82;100.00;101016.53;4136812;28;20037;-70
2024/03/07 08:00:54;;;;;;;7.97;4.30;;;4.50;99.90;;;3.92;100.00;101010.56;4136971;28;20034;-69
2024/03/07 08:03:03;;;;;;;11.95;3.08;;;4.60;99.90;;;4.01;100.00;101013.47;4136117;28;20513;-70
2024/03/07 08:05:05;;;;;;;8.77;3.28;;;4.70;99.90;;;4.13;100.00;101020.44;4120379;28;20155;-69
2024/03/07 08:07:07;;;;;;;11.15;3.63;;;4.80;99.90;;;4.19;100.00;101013.00;4136903;28;20512;-70
2024/03/07 08:09:09;;;;;;;7.30;3.08;;;4.90;99.90;;;4.27;100.00;101012.47;4136849;28;20022;-70
2024/03/07 08:11:11;;;;;;;11.82;4.05;;;5.00;99.90;;;4.34;100.00;101001.47;4136764;28;20030;-70
2024/03/07 08:13:13;;;;;;;8.43;3.50;;;5.00;99.90;;;4.42;100.00;100999.13;4136387;28;20035;-70
2024/03/07 08:15:15;;;;;;;6.95;2.75;;;5.10;99.90;;;4.50;100.00;100992.53;4121019;28;20030;-69
2024/03/07 08:17:16;;;;;;;8.73;3.13;;;5.20;99.90;;;4.55;100.00;100987.81;4119338;28;20045;-70
2024/03/07 08:19:17;;;;;;;10.88;3.80;;;5.20;99.90;;;4.64;100.00;100980.13;4136605;28;20034;-69
2024/03/07 08:21:17;;;;;;;5.47;2.50;;;5.30;99.90;;;4.72;100.00;100979.59;4136497;28;20026;-69
2024/03/07 08:23:18;;;;;;;6.65;2.88;;;5.30;99.90;;;4.78;100.00;100976.53;4136617;28;20030;-69
2024/03/07 08:25:21;;;;;;;4.07;2.35;;;5.40;99.90;;;4.80;100.00;100978.06;4136619;28;20022;-69
2024/03/07 08:27:22;;;;;;;11.68;2.53;;;5.50;99.90;;;4.87;100.00;100970.59;4136341;28;20073;-70
2024/03/07 08:29:24;;;;;;;9.27;2.85;;;5.50;99.90;;;4.93;100.00;100968.34;4136385;28;20405;-69